Time;durP1;ratioP1;P1;durP2;ratioP2;P2;SDS_P1;SDS_P2;PMS_P1;PMS_P2;Temp;Humidity;BMP_temperature;BMP_pressure;BME280_temperature;BME280_humidity;BME280_pressure;Samples;Min_cycle;Max_cycle;Signal;HPM_P1;HPM_P2
2022/07/31 00:00:26;;;;;;;0.60;0.60;;;22.70;95.70;;;;;;5109312;28;20819;-37
2022/07/31 00:02:54;;;;;;;4.40;0.63;;;22.70;96.10;;;;;;5107863;28;20207;-38
2022/07/31 00:05:21;;;;;;;0.50;0.50;;;22.70;95.80;;;;;;5111039;28;20215;-38
2022/07/31 00:07:48;;;;;;;0.50;0.50;;;22.70;95.90;;;;;;5109928;28;20200;-38
2022/07/31 00:10:15;;;;;;;0.70;0.70;;;22.70;96.00;;;;;;5110327;28;20200;-40
2022/07/31 00:12:42;;;;;;;0.75;0.75;;;22.70;96.10;;;;;;5106598;28;20275;-37
2022/07/31 00:15:12;;;;;;;1.20;0.68;;;22.70;96.20;;;;;;5098456;28;20200;-38
2022/07/31 00:17:39;;;;;;;0.65;0.60;;;22.70;96.40;;;;;;5110439;28;20224;-38
2022/07/31 00:20:08;;;;;;;0.65;0.65;;;22.60;96.40;;;;;;5108510;28;20221;-37
2022/07/31 00:22:35;;;;;;;0.63;0.60;;;22.60;96.60;;;;;;5110121;28;20236;-38
2022/07/31 00:25:02;;;;;;;0.60;0.60;;;22.60;96.60;;;;;;5109134;28;20219;-39
2022/07/31 00:27:29;;;;;;;0.60;0.60;;;22.60;96.80;;;;;;5108978;28;20681;-46
2022/07/31 00:29:56;;;;;;;0.60;0.60;;;22.50;96.80;;;;;;5109638;28;20191;-41
2022/07/31 00:32:25;;;;;;;0.40;0.40;;;22.50;97.00;;;;;;5109922;28;20276;-39
2022/07/31 00:34:52;;;;;;;0.40;0.40;;;22.60;97.10;;;;;;5109681;28;20280;-39
2022/07/31 00:37:19;;;;;;;0.50;0.50;;;22.50;97.10;;;;;;5106532;28;20679;-38
2022/07/31 00:39:46;;;;;;;0.65;0.40;;;22.60;97.20;;;;;;5102058;28;20269;-38
2022/07/31 00:42:17;;;;;;;1.02;0.60;;;22.50;97.20;;;;;;5108056;28;20291;-38
2022/07/31 00:44:44;;;;;;;0.50;0.50;;;22.50;97.30;;;;;;5104186;28;20283;-40
2022/07/31 00:47:11;;;;;;;0.60;0.60;;;22.50;97.40;;;;;;5108023;28;20283;-38
2022/07/31 00:49:39;;;;;;;1.48;0.60;;;22.50;97.40;;;;;;5108172;28;20527;-39
2022/07/31 00:52:06;;;;;;;0.70;0.70;;;22.50;97.40;;;;;;5105426;28;20601;-40
2022/07/31 00:54:34;;;;;;;0.80;0.65;;;22.60;97.50;;;;;;5105055;28;20646;-39
2022/07/31 00:57:01;;;;;;;0.50;0.50;;;22.50;97.50;;;;;;5109051;28;20217;-42
2022/07/31 00:59:28;;;;;;;0.60;0.60;;;22.50;97.60;;;;;;5094653;28;20288;-44
2022/07/31 01:01:56;;;;;;;0.50;0.50;;;22.50;97.60;;;;;;5107746;28;20196;-39
2022/07/31 01:04:23;;;;;;;0.30;0.30;;;22.50;97.70;;;;;;5099654;28;20599;-40
2022/07/31 01:06:52;;;;;;;0.40;0.40;;;22.50;97.70;;;;;;5109306;28;20188;-41
2022/07/31 01:09:19;;;;;;;0.40;0.40;;;22.40;97.70;;;;;;5107456;28;21281;-38
2022/07/31 01:11:51;;;;;;;0.40;0.40;;;22.40;97.80;;;;;;5110386;28;20192;-38
2022/07/31 01:14:21;;;;;;;0.47;0.47;;;22.40;97.80;;;;;;5094956;28;20216;-45
2022/07/31 01:16:51;;;;;;;0.38;0.38;;;22.40;97.80;;;;;;5101263;28;20637;-39
2022/07/31 01:19:25;;;;;;;0.60;0.60;;;22.40;97.80;;;;;;5101579;28;20307;-43
2022/07/31 01:22:05;;;;;;;0.85;0.50;;;22.40;97.80;;;;;;5100468;28;20837;-44
2022/07/31 01:24:51;;;;;;;0.45;0.45;;;22.40;97.70;;;;;;5100082;28;20198;-40
2022/07/31 01:27:48;;;;;;;0.65;0.65;;;22.30;97.70;;;;;;5122476;27;20564;-47
2022/07/31 01:30:17;;;;;;;0.50;0.50;;;22.30;97.70;;;;;;5104436;28;20271;-43
2022/07/31 01:32:49;;;;;;;0.50;0.50;;;22.30;97.70;;;;;;5097438;28;20193;-41
2022/07/31 01:35:21;;;;;;;0.50;0.50;;;22.30;97.70;;;;;;5097395;28;20196;-44
2022/07/31 01:37:54;;;;;;;0.60;0.60;;;22.30;97.70;;;;;;5098741;28;20223;-40
2022/07/31 01:40:28;;;;;;;0.57;0.57;;;22.30;97.70;;;;;;5102359;28;20201;-45
2022/07/31 01:43:01;;;;;;;0.60;0.60;;;22.30;97.70;;;;;;5107168;28;20512;-42
2022/07/31 01:45:32;;;;;;;0.40;0.40;;;22.30;97.70;;;;;;5107671;28;20271;-46
2022/07/31 01:48:01;;;;;;;0.68;0.68;;;22.30;97.70;;;;;;5097347;28;20722;-44
2022/07/31 01:50:34;;;;;;;0.50;0.50;;;22.30;97.70;;;;;;5100078;28;20203;-46
2022/07/31 01:53:02;;;;;;;5.95;0.40;;;22.30;97.80;;;;;;5099100;28;20289;-38
2022/07/31 01:55:31;;;;;;;0.60;0.60;;;22.30;97.80;;;;;;5098825;28;20203;-40
2022/07/31 01:58:00;;;;;;;0.60;0.60;;;22.30;97.80;;;;;;5092074;28;20835;-38
2022/07/31 02:00:32;;;;;;;0.40;0.40;;;22.30;97.90;;;;;;5099061;28;20199;-46
2022/07/31 02:03:01;;;;;;;0.68;0.60;;;22.30;97.90;;;;;;5105989;28;20243;-39
2022/07/31 02:05:30;;;;;;;0.60;0.60;;;22.20;97.90;;;;;;5104022;28;20199;-38
2022/07/31 02:07:57;;;;;;;1.55;0.52;;;22.20;97.90;;;;;;5097012;28;20247;-39
2022/07/31 02:10:28;;;;;;;1.20;0.50;;;22.30;97.90;;;;;;5100601;28;20211;-38
2022/07/31 02:12:56;;;;;;;0.40;0.40;;;22.30;97.90;;;;;;5090619;28;20685;-38
2022/07/31 02:15:24;;;;;;;0.60;0.60;;;22.30;97.90;;;;;;5100677;28;20188;-40
2022/07/31 02:17:53;;;;;;;0.40;0.40;;;22.20;97.90;;;;;;5100247;28;20685;-41
2022/07/31 02:20:42;;;;;;;0.50;0.50;;;22.20;98.20;;;;;;5104875;28;20663;-39
2022/07/31 02:23:10;;;;;;;0.40;0.40;;;22.20;97.90;;;;;;5093876;28;20214;-38
2022/07/31 02:25:40;;;;;;;0.40;0.40;;;22.20;97.90;;;;;;5101900;28;20474;-39
2022/07/31 02:28:09;;;;;;;0.50;0.43;;;22.10;97.90;;;;;;5096823;28;20218;-39
2022/07/31 02:30:39;;;;;;;0.50;0.50;;;22.20;98.00;;;;;;5097001;28;20204;-39
2022/07/31 02:33:12;;;;;;;1.10;0.40;;;22.10;97.90;;;;;;5098571;28;20205;-44
2022/07/31 02:35:44;;;;;;;0.40;0.40;;;22.10;97.90;;;;;;5095815;28;20734;-45
2022/07/31 02:38:12;;;;;;;0.40;0.40;;;22.10;97.90;;;;;;5121672;28;20202;-44
2022/07/31 02:40:40;;;;;;;0.77;0.50;;;22.20;97.80;;;;;;5099813;28;20324;-43
2022/07/31 02:43:10;;;;;;;0.40;0.40;;;22.10;97.70;;;;;;5099509;28;20695;-39
2022/07/31 02:45:38;;;;;;;0.40;0.40;;;22.10;97.70;;;;;;5100531;28;20216;-42
2022/07/31 02:48:08;;;;;;;0.40;0.40;;;22.20;97.70;;;;;;5096410;28;20242;-39
2022/07/31 02:50:38;;;;;;;0.50;0.50;;;22.10;97.60;;;;;;5098337;28;20564;-42
2022/07/31 02:53:05;;;;;;;0.40;0.40;;;22.10;97.50;;;;;;5105425;28;20192;-42
2022/07/31 02:55:33;;;;;;;0.47;0.47;;;22.10;97.50;;;;;;5099228;28;20284;-39
2022/07/31 02:58:02;;;;;;;0.50;0.50;;;22.10;97.40;;;;;;5098519;28;20200;-40
2022/07/31 03:00:29;;;;;;;0.50;0.50;;;22.10;97.40;;;;;;5097923;28;20231;-40
2022/07/31 03:02:57;;;;;;;0.63;0.63;;;22.10;97.30;;;;;;5097164;28;20221;-38
2022/07/31 03:05:27;;;;;;;0.70;0.70;;;22.10;97.30;;;;;;5101587;28;20694;-38
2022/07/31 03:07:55;;;;;;;0.60;0.60;;;22.10;97.20;;;;;;5105034;28;20242;-37
2022/07/31 03:10:22;;;;;;;0.50;0.50;;;22.10;97.20;;;;;;5106251;28;20546;-38
2022/07/31 03:13:02;;;;;;;0.85;0.70;;;22.20;97.20;;;;;;5095355;28;20196;-38
2022/07/31 03:15:31;;;;;;;1.30;0.60;;;22.10;97.10;;;;;;5098168;28;20189;-38
2022/07/31 03:17:59;;;;;;;0.50;0.50;;;22.10;97.00;;;;;;5121031;28;20712;-39
2022/07/31 03:20:36;;;;;;;0.65;0.65;;;22.20;97.00;;;;;;5097127;28;20218;-37
2022/07/31 03:23:04;;;;;;;0.85;0.85;;;22.10;96.90;;;;;;5106735;28;20634;-38
2022/07/31 03:25:34;;;;;;;0.63;0.63;;;22.10;96.90;;;;;;5099128;28;20223;-38
2022/07/31 03:28:01;;;;;;;0.63;0.60;;;22.10;96.90;;;;;;5106174;28;20196;-38
2022/07/31 03:30:28;;;;;;;0.68;0.68;;;22.10;96.80;;;;;;5106110;28;20192;-38
2022/07/31 03:33:01;;;;;;;0.70;0.70;;;22.10;96.80;;;;;;5101718;28;20229;-37
2022/07/31 03:35:28;;;;;;;0.60;0.60;;;22.10;96.80;;;;;;5099743;28;20233;-37
2022/07/31 03:37:57;;;;;;;0.60;0.60;;;22.10;96.80;;;;;;5099068;28;20310;-37
2022/07/31 03:40:24;;;;;;;0.70;0.70;;;22.10;96.80;;;;;;5099422;28;20253;-38
2022/07/31 03:42:54;;;;;;;0.70;0.70;;;22.10;96.70;;;;;;5095200;28;20266;-37
2022/07/31 03:45:22;;;;;;;0.70;0.70;;;22.10;96.60;;;;;;5107910;28;20203;-40
2022/07/31 03:47:49;;;;;;;0.63;0.60;;;22.00;96.80;;;;;;5106306;28;20671;-37
2022/07/31 03:50:17;;;;;;;0.50;0.50;;;22.00;96.40;;;;;;5098767;28;20208;-38
2022/07/31 03:52:45;;;;;;;0.60;0.60;;;22.00;96.30;;;;;;5100786;28;20663;-37
2022/07/31 03:55:14;;;;;;;0.60;0.60;;;22.00;96.20;;;;;;5099745;28;20205;-37
2022/07/31 03:57:42;;;;;;;0.60;0.60;;;22.00;96.20;;;;;;5101674;28;20302;-39
2022/07/31 04:00:10;;;;;;;0.60;0.60;;;22.00;96.10;;;;;;5100040;28;20213;-39
2022/07/31 04:02:43;;;;;;;1.20;0.75;;;22.00;96.10;;;;;;5108597;28;20196;-46
2022/07/31 04:05:28;;;;;;;0.80;0.80;;;22.00;96.10;;;;;;5111700;28;20665;-40
2022/07/31 04:07:56;;;;;;;0.70;0.70;;;22.00;96.00;;;;;;5100310;28;20582;-38
2022/07/31 04:10:24;;;;;;;0.60;0.60;;;22.00;96.00;;;;;;5103028;28;20296;-40
2022/07/31 04:12:52;;;;;;;0.82;0.80;;;22.00;95.90;;;;;;5103191;28;20200;-40
2022/07/31 04:15:19;;;;;;;0.63;0.63;;;22.00;95.80;;;;;;5106786;28;20270;-39
2022/07/31 04:17:46;;;;;;;0.70;0.70;;;22.00;95.80;;;;;;5103227;28;20714;-38
2022/07/31 04:20:17;;;;;;;0.57;0.57;;;22.00;95.60;;;;;;5125543;27;20195;-40
2022/07/31 04:22:44;;;;;;;0.55;0.50;;;22.00;95.50;;;;;;5109684;28;20192;-38
2022/07/31 04:25:20;;;;;;;0.70;0.70;;;22.00;95.30;;;;;;5104214;28;20686;-37
2022/07/31 04:28:09;;;;;;;0.60;0.60;;;22.00;95.30;;;;;;5104582;28;20664;-41
2022/07/31 04:30:38;;;;;;;0.70;0.70;;;22.00;95.10;;;;;;5108933;28;20222;-39
2022/07/31 04:33:05;;;;;;;2.25;0.75;;;22.00;95.00;;;;;;5095765;28;20223;-40
2022/07/31 04:35:32;;;;;;;0.55;0.47;;;21.90;94.90;;;;;;5096426;28;20202;-40
2022/07/31 04:37:59;;;;;;;2.28;1.10;;;22.00;94.90;;;;;;5106308;28;20257;-41
2022/07/31 04:40:29;;;;;;;1.05;0.63;;;21.90;94.70;;;;;;5097794;28;20207;-40
2022/07/31 04:42:56;;;;;;;0.50;0.50;;;21.90;94.60;;;;;;5098015;28;20831;-41
2022/07/31 04:45:25;;;;;;;0.60;0.60;;;21.90;94.60;;;;;;5107095;28;20755;-44
2022/07/31 04:47:53;;;;;;;0.60;0.60;;;21.90;94.60;;;;;;5107519;28;20280;-44
2022/07/31 04:50:20;;;;;;;0.60;0.60;;;21.90;94.50;;;;;;5109655;28;20215;-37
2022/07/31 04:52:58;;;;;;;0.77;0.77;;;21.90;94.50;;;;;;5103936;28;20621;-38
2022/07/31 04:55:27;;;;;;;0.60;0.60;;;22.00;94.50;;;;;;5102128;28;20199;-38
2022/07/31 04:57:54;;;;;;;0.82;0.57;;;22.00;94.40;;;;;;5105540;28;20208;-37
2022/07/31 05:00:22;;;;;;;0.60;0.60;;;22.00;94.40;;;;;;5108681;27;20231;-42
2022/07/31 05:02:50;;;;;;;0.50;0.50;;;22.00;94.30;;;;;;5104449;28;20196;-39
2022/07/31 05:05:17;;;;;;;0.60;0.60;;;22.10;94.30;;;;;;5097925;28;20274;-39
2022/07/31 05:07:45;;;;;;;0.70;0.70;;;22.10;94.20;;;;;;5106594;28;20596;-41
2022/07/31 05:12:57;;;;;;;0.60;0.60;;;22.10;94.20;;;;;;5102998;28;20207;-45
2022/07/31 05:15:24;;;;;;;0.77;0.77;;;22.10;94.10;;;;;;5095225;28;20199;-38
2022/07/31 05:17:53;;;;;;;0.60;0.60;;;22.10;94.10;;;;;;5100340;28;20319;-38
2022/07/31 05:20:52;;;;;;;0.70;0.70;;;22.10;94.10;;;;;;5053780;28;20590;-46
2022/07/31 05:23:37;;;;;;;0.40;0.40;;;22.10;94.00;;;;;;5109015;28;20298;-44
2022/07/31 05:26:09;;;;;;;0.55;0.55;;;22.20;94.00;;;;;;5106583;28;20499;-37
2022/07/31 05:28:37;;;;;;;0.93;0.77;;;22.10;93.90;;;;;;5098078;28;20196;-40
2022/07/31 05:31:05;;;;;;;0.50;0.50;;;22.10;93.90;;;;;;5101001;28;20192;-41
2022/07/31 05:33:33;;;;;;;0.98;0.80;;;22.20;94.30;;;;;;5100598;28;20196;-44
2022/07/31 05:36:01;;;;;;;0.70;0.70;;;22.20;94.00;;;;;;5101132;28;20275;-39
2022/07/31 05:38:29;;;;;;;0.80;0.80;;;22.20;94.10;;;;;;5107935;28;20206;-47
2022/07/31 05:41:19;;;;;;;0.90;0.90;;;22.20;94.20;;;;;;5071518;28;20667;-45
2022/07/31 05:44:05;;;;;;;0.80;0.80;;;22.20;94.40;;;;;;5105030;28;20210;-38
2022/07/31 05:46:37;;;;;;;2.00;1.02;;;22.20;94.40;;;;;;5124563;27;20196;-38
2022/07/31 05:49:05;;;;;;;0.50;0.50;;;22.20;94.50;;;;;;5107312;28;20199;-39
2022/07/31 05:51:32;;;;;;;0.73;0.73;;;22.20;94.60;;;;;;5099595;28;20200;-38
2022/07/31 05:54:00;;;;;;;1.17;0.80;;;22.20;94.60;;;;;;5106197;28;20208;-39
2022/07/31 05:56:46;;;;;;;0.70;0.70;;;22.20;94.60;;;;;;5107415;28;20250;-43
2022/07/31 05:59:15;;;;;;;0.68;0.60;;;22.20;94.60;;;;;;5097279;28;20200;-38
2022/07/31 06:01:48;;;;;;;0.70;0.70;;;22.20;94.60;;;;;;5106102;28;20180;-43
2022/07/31 06:04:17;;;;;;;0.70;0.70;;;22.20;94.40;;;;;;5095362;28;20617;-40
2022/07/31 06:06:46;;;;;;;0.93;0.90;;;22.30;94.40;;;;;;5095053;28;20196;-41
2022/07/31 06:09:13;;;;;;;0.73;0.73;;;22.30;94.30;;;;;;5098946;28;20260;-43
2022/07/31 06:11:44;;;;;;;0.80;0.80;;;22.30;94.20;;;;;;5096143;28;21408;-39
2022/07/31 06:14:12;;;;;;;0.88;0.82;;;22.30;94.10;;;;;;5091989;28;20201;-43
2022/07/31 06:17:05;;;;;;;0.70;0.70;;;22.30;94.00;;;;;;5101239;28;20703;-42
2022/07/31 06:19:35;;;;;;;0.80;0.80;;;22.30;93.90;;;;;;5093260;28;20192;-42
2022/07/31 06:22:03;;;;;;;1.38;0.65;;;22.30;93.80;;;;;;5093969;28;20636;-39
2022/07/31 06:24:32;;;;;;;0.60;0.60;;;22.30;93.80;;;;;;5095893;28;20199;-41
2022/07/31 06:26:59;;;;;;;0.73;0.73;;;22.30;93.70;;;;;;5098947;28;20224;-37
2022/07/31 06:29:28;;;;;;;1.08;0.70;;;22.30;93.70;;;;;;5093284;28;20192;-38
2022/07/31 06:31:55;;;;;;;0.65;0.65;;;22.30;93.90;;;;;;5104587;28;20196;-37
2022/07/31 06:34:22;;;;;;;0.60;0.60;;;22.30;93.50;;;;;;5094470;28;21094;-38
2022/07/31 06:36:51;;;;;;;2.22;0.68;;;22.40;93.50;;;;;;5104233;28;20325;-37
2022/07/31 06:39:22;;;;;;;0.60;0.60;;;22.40;93.50;;;;;;5097364;28;20236;-39
2022/07/31 06:42:27;;;;;;;0.50;0.50;;;22.40;93.50;;;;;;5033701;28;20878;-40
2022/07/31 06:45:08;;;;;;;0.98;0.98;;;22.40;93.40;;;;;;5040567;28;20232;-38
2022/07/31 06:47:50;;;;;;;1.27;0.95;;;22.40;93.40;;;;;;5086666;28;20203;-39
2022/07/31 06:50:27;;;;;;;4.32;1.00;;;22.40;93.00;;;;;;5102073;28;20203;-38
2022/07/31 06:53:08;;;;;;;0.90;0.90;;;22.40;92.90;;;;;;5096950;28;21482;-39
2022/07/31 06:55:35;;;;;;;3.45;0.95;;;22.40;92.90;;;;;;5101615;28;20652;-38
2022/07/31 06:58:03;;;;;;;1.95;0.90;;;22.40;92.80;;;;;;5098224;28;20200;-38
2022/07/31 07:00:31;;;;;;;2.45;1.00;;;22.40;92.50;;;;;;5101743;28;20196;-38
2022/07/31 07:02:58;;;;;;;0.77;0.77;;;22.40;92.30;;;;;;5101923;28;20204;-39
2022/07/31 07:05:26;;;;;;;1.55;1.08;;;22.40;92.10;;;;;;5100841;28;20298;-37
2022/07/31 07:07:55;;;;;;;1.15;1.00;;;22.40;92.00;;;;;;5103035;28;20196;-38
2022/07/31 07:10:24;;;;;;;1.98;0.80;;;22.30;91.80;;;;;;5101566;28;20193;-39
2022/07/31 07:13:00;;;;;;;0.88;0.70;;;22.40;92.00;;;;;;5109747;28;20188;-38
2022/07/31 07:15:32;;;;;;;1.35;1.10;;;22.30;91.90;;;;;;5102550;28;20200;-43
2022/07/31 07:17:59;;;;;;;0.90;0.90;;;22.40;92.00;;;;;;5099087;28;20224;-37
2022/07/31 07:20:34;;;;;;;0.73;0.73;;;22.30;92.00;;;;;;5099087;28;20203;-41
2022/07/31 07:23:01;;;;;;;0.68;0.68;;;22.30;92.00;;;;;;5096880;28;20203;-38
2022/07/31 07:25:47;;;;;;;3.28;0.90;;;22.40;92.00;;;;;;5101699;28;20460;-39
2022/07/31 07:28:16;;;;;;;1.40;0.75;;;22.30;92.00;;;;;;5095247;28;20185;-40
2022/07/31 07:30:43;;;;;;;0.80;0.60;;;22.40;92.00;;;;;;5099752;27;20200;-37
2022/07/31 07:33:11;;;;;;;0.80;0.80;;;22.30;92.00;;;;;;5102273;28;20790;-40
2022/07/31 07:35:38;;;;;;;1.42;0.60;;;22.30;92.10;;;;;;5099414;28;20193;-42
2022/07/31 07:38:12;;;;;;;1.52;0.90;;;22.40;92.10;;;;;;5102050;28;20201;-38
2022/07/31 07:40:39;;;;;;;0.80;0.80;;;22.40;92.00;;;;;;5106064;28;20195;-38
2022/07/31 07:43:08;;;;;;;0.80;0.60;;;22.40;92.00;;;;;;5099117;28;20697;-40
2022/07/31 07:45:35;;;;;;;0.70;0.70;;;22.40;91.90;;;;;;5102367;28;20622;-40
2022/07/31 07:48:02;;;;;;;0.80;0.80;;;22.40;91.90;;;;;;5101362;28;20663;-42
2022/07/31 07:50:33;;;;;;;1.55;0.82;;;22.40;91.80;;;;;;5103762;28;20658;-38
2022/07/31 07:53:19;;;;;;;0.93;0.93;;;22.40;91.70;;;;;;5109658;28;20501;-44
2022/07/31 07:56:05;;;;;;;0.95;0.70;;;22.40;91.60;;;;;;5109289;28;20203;-44
2022/07/31 07:58:54;;;;;;;0.80;0.80;;;22.40;91.50;;;;;;5108147;28;20200;-39
2022/07/31 08:01:39;;;;;;;2.38;0.85;;;22.40;91.50;;;;;;5108358;28;20543;-43
2022/07/31 08:04:18;;;;;;;1.08;0.80;;;22.40;91.50;;;;;;5102559;28;20201;-45
2022/07/31 08:06:46;;;;;;;0.90;0.73;;;22.40;91.40;;;;;;5101055;28;20690;-41
2022/07/31 08:09:14;;;;;;;1.15;0.70;;;22.40;91.30;;;;;;5124903;27;20281;-41
2022/07/31 08:11:59;;;;;;;0.80;0.80;;;22.40;91.40;;;;;;5110284;28;20199;-47
2022/07/31 08:15:00;;;;;;;0.80;0.80;;;22.40;91.50;;;;;;5100468;28;20279;-42
2022/07/31 08:17:46;;;;;;;1.33;0.93;;;22.40;91.60;;;;;;5106672;28;20725;-46
2022/07/31 08:20:13;;;;;;;0.85;0.85;;;22.40;91.70;;;;;;5098004;28;20197;-39
2022/07/31 08:22:40;;;;;;;1.08;0.60;;;22.40;91.70;;;;;;5094826;28;20201;-42
2022/07/31 08:25:08;;;;;;;1.10;0.90;;;22.40;91.70;;;;;;5103160;28;20271;-39
2022/07/31 08:27:35;;;;;;;0.80;0.80;;;22.40;91.70;;;;;;5107053;28;20278;-39
2022/07/31 08:30:04;;;;;;;0.77;0.77;;;22.40;91.60;;;;;;5102094;28;20207;-48
2022/07/31 08:32:31;;;;;;;0.85;0.85;;;22.40;91.40;;;;;;5106731;28;20196;-44
2022/07/31 08:35:17;;;;;;;1.00;0.90;;;22.50;91.40;;;;;;5097355;28;20216;-46
2022/07/31 08:37:44;;;;;;;0.70;0.70;;;22.50;91.40;;;;;;5105737;28;20745;-40
2022/07/31 08:40:13;;;;;;;0.70;0.70;;;22.50;91.20;;;;;;5104363;28;20204;-42
2022/07/31 08:42:40;;;;;;;0.88;0.88;;;22.50;91.20;;;;;;5108514;28;20219;-41
2022/07/31 08:45:10;;;;;;;0.88;0.75;;;22.50;91.20;;;;;;5108601;28;20340;-43
2022/07/31 08:47:47;;;;;;;1.70;0.88;;;22.50;91.30;;;;;;5100745;28;20203;-43
2022/07/31 08:50:19;;;;;;;1.05;0.68;;;22.60;91.40;;;;;;5100406;28;20230;-46
2022/07/31 08:52:48;;;;;;;0.77;0.77;;;22.60;91.30;;;;;;5103047;28;20214;-40
2022/07/31 08:55:39;;;;;;;0.88;0.88;;;22.60;91.00;;;;;;5097874;28;20225;-42
2022/07/31 08:58:06;;;;;;;1.67;1.00;;;22.70;90.90;;;;;;5106802;28;20212;-44
2022/07/31 09:00:35;;;;;;;0.80;0.80;;;22.70;90.80;;;;;;5110829;28;20196;-43
2022/07/31 09:03:03;;;;;;;0.77;0.77;;;22.70;90.70;;;;;;5108451;28;20274;-42
2022/07/31 09:05:37;;;;;;;0.70;0.70;;;22.70;90.70;;;;;;5106067;28;20208;-40
2022/07/31 09:08:05;;;;;;;0.93;0.93;;;22.70;90.80;;;;;;5105371;28;20200;-41
2022/07/31 09:10:33;;;;;;;0.70;0.70;;;22.80;90.80;;;;;;5105780;28;20199;-40
2022/07/31 09:13:11;;;;;;;0.73;0.73;;;22.80;90.80;;;;;;5101437;28;20204;-40
2022/07/31 09:15:40;;;;;;;0.90;0.90;;;22.80;90.50;;;;;;5100519;28;20223;-43
2022/07/31 09:18:17;;;;;;;0.63;0.63;;;22.70;90.20;;;;;;5105886;28;20231;-44
2022/07/31 09:20:55;;;;;;;0.95;0.90;;;22.70;90.30;;;;;;5102639;28;20192;-39
2022/07/31 09:23:23;;;;;;;1.30;0.90;;;22.70;90.40;;;;;;5124601;27;20303;-41
2022/07/31 09:25:55;;;;;;;0.93;0.80;;;22.70;90.40;;;;;;5102919;28;20212;-43
2022/07/31 09:28:32;;;;;;;0.90;0.90;;;22.70;90.30;;;;;;5102924;28;20204;-41
2022/07/31 09:31:01;;;;;;;1.27;0.98;;;22.80;90.30;;;;;;5108120;28;20192;-40
2022/07/31 09:33:47;;;;;;;0.90;0.90;;;22.70;90.20;;;;;;5106728;28;20222;-42
2022/07/31 09:36:23;;;;;;;2.25;0.90;;;22.80;90.20;;;;;;5101700;28;20200;-39
2022/07/31 09:38:56;;;;;;;0.80;0.80;;;22.80;90.20;;;;;;5097318;28;20203;-43
2022/07/31 09:41:51;;;;;;;0.68;0.68;;;22.70;89.90;;;;;;5065814;28;20686;-42
2022/07/31 09:44:41;;;;;;;0.70;0.70;;;22.80;89.60;;;;;;5095511;28;20188;-40
2022/07/31 09:47:21;;;;;;;0.63;0.63;;;22.80;89.70;;;;;;5102360;28;20246;-39
2022/07/31 09:49:54;;;;;;;1.80;0.98;;;22.80;89.70;;;;;;5099070;28;20219;-41
2022/07/31 09:52:22;;;;;;;2.10;1.02;;;22.80;89.80;;;;;;5108483;28;20716;-43
2022/07/31 09:55:00;;;;;;;1.30;0.68;;;22.70;89.80;;;;;;5096982;28;20508;-37
2022/07/31 09:57:29;;;;;;;0.80;0.80;;;22.70;89.70;;;;;;5100893;28;20688;-37
2022/07/31 09:59:59;;;;;;;0.75;0.75;;;22.70;89.80;;;;;;5099822;28;20785;-37
2022/07/31 10:02:29;;;;;;;1.30;1.20;;;22.70;89.80;;;;;;5102997;28;20192;-39
2022/07/31 10:04:58;;;;;;;1.25;1.15;;;22.70;89.30;;;;;;5099830;28;20200;-38
2022/07/31 10:07:27;;;;;;;1.08;1.08;;;22.70;88.80;;;;;;5137798;27;20216;-37
2022/07/31 10:09:58;;;;;;;1.05;1.02;;;22.70;89.10;;;;;;5097135;28;20290;-39
2022/07/31 10:12:48;;;;;;;0.90;0.85;;;22.70;89.30;;;;;;5102893;28;20207;-38
2022/07/31 10:15:17;;;;;;;3.20;0.80;;;22.70;89.00;;;;;;5100736;28;20200;-39
2022/07/31 10:17:52;;;;;;;1.30;0.90;;;22.70;88.70;;;;;;5101431;28;20594;-39
2022/07/31 10:20:36;;;;;;;0.70;0.60;;;22.70;88.60;;;;;;5101522;28;20188;-38
2022/07/31 10:23:26;;;;;;;0.70;0.70;;;22.70;88.70;;;;;;5106304;28;20705;-38
2022/07/31 10:25:58;;;;;;;0.73;0.73;;;22.70;88.00;;;;;;5102540;28;20212;-41
2022/07/31 10:28:27;;;;;;;0.65;0.60;;;22.70;87.70;;;;;;5105215;28;20230;-39
2022/07/31 10:30:55;;;;;;;65.43;5.72;;;22.70;87.70;;;;;;5103612;28;20674;-42
2022/07/31 10:33:25;;;;;;;36.17;3.95;;;22.70;87.20;;;;;;5102432;28;20298;-39
2022/07/31 10:36:16;;;;;;;1137.07;75.80;;;22.70;87.00;;;;;;5105426;28;20207;-38
2022/07/31 10:39:08;;;;;;;565.75;46.63;;;22.80;87.00;;;;;;5109752;28;20550;-39
2022/07/31 10:41:58;;;;;;;128.10;15.23;;;22.80;86.90;;;;;;5102450;28;20203;-43
2022/07/31 10:44:33;;;;;;;168.98;14.80;;;22.80;86.70;;;;;;5137678;27;20268;-40
2022/07/31 10:47:18;;;;;;;26.58;4.10;;;22.80;86.50;;;;;;5106180;28;20593;-40
2022/07/31 10:50:23;;;;;;;5.57;1.52;;;22.90;86.50;;;;;;5089876;28;20626;-39
2022/07/31 10:53:24;;;;;;;2.53;0.85;;;22.90;87.00;;;;;;5089758;28;20249;-39
2022/07/31 10:56:11;;;;;;;0.63;0.63;;;22.90;87.10;;;;;;5102930;28;20679;-37
2022/07/31 10:59:00;;;;;;;1.95;0.77;;;22.80;86.80;;;;;;5101135;28;20295;-38
2022/07/31 11:01:54;;;;;;;0.65;0.65;;;22.90;86.80;;;;;;5103846;28;20196;-39
2022/07/31 11:04:39;;;;;;;0.90;0.90;;;22.80;86.70;;;;;;5108982;28;20326;-42
2022/07/31 11:07:18;;;;;;;0.93;0.82;;;22.80;85.80;;;;;;5101262;28;20212;-46
2022/07/31 11:10:17;;;;;;;3.38;1.00;;;22.90;85.60;;;;;;5099118;28;20574;-43
2022/07/31 11:13:06;;;;;;;2.10;0.90;;;22.90;85.40;;;;;;5108502;28;20195;-43
2022/07/31 11:16:03;;;;;;;0.70;0.70;;;22.90;85.80;;;;;;5108935;28;20207;-46
2022/07/31 11:18:39;;;;;;;0.70;0.70;;;22.90;86.60;;;;;;5110374;28;21072;-41
2022/07/31 11:21:09;;;;;;;0.70;0.70;;;22.90;86.20;;;;;;5112170;28;20559;-42
2022/07/31 11:23:37;;;;;;;0.70;0.70;;;22.90;85.40;;;;;;5108094;28;20188;-45
2022/07/31 11:26:06;;;;;;;1.00;0.60;;;22.90;85.50;;;;;;5110608;28;20314;-43
2022/07/31 11:28:34;;;;;;;1.08;0.73;;;23.00;85.40;;;;;;5105784;28;20669;-38
2022/07/31 11:31:03;;;;;;;1.23;1.05;;;23.00;85.40;;;;;;5103129;28;20224;-39
2022/07/31 11:33:37;;;;;;;1.63;0.88;;;23.00;85.70;;;;;;5107138;28;20198;-46
2022/07/31 11:36:10;;;;;;;4.65;0.90;;;23.00;86.10;;;;;;5102393;28;20638;-44
2022/07/31 11:38:40;;;;;;;0.80;0.60;;;23.00;86.20;;;;;;5106736;28;20189;-40
2022/07/31 11:41:08;;;;;;;0.80;0.80;;;23.00;86.00;;;;;;5105397;28;20290;-42
2022/07/31 11:43:36;;;;;;;1.00;0.70;;;23.10;86.00;;;;;;5104558;28;20216;-41
2022/07/31 11:46:04;;;;;;;1.10;0.70;;;23.10;86.00;;;;;;5110956;28;20257;-43
2022/07/31 11:48:32;;;;;;;0.73;0.73;;;23.10;86.00;;;;;;5109455;28;20538;-42
2022/07/31 11:51:00;;;;;;;1.17;0.80;;;23.10;86.30;;;;;;5111498;28;20707;-43
2022/07/31 11:53:27;;;;;;;0.60;0.60;;;23.20;87.00;;;;;;5107784;27;20195;-47
2022/07/31 11:55:57;;;;;;;3.88;1.52;;;23.10;87.00;;;;;;5105961;28;20242;-45
2022/07/31 11:58:26;;;;;;;1.02;0.80;;;23.10;86.50;;;;;;5104707;28;20196;-44
2022/07/31 12:00:55;;;;;;;0.90;0.90;;;23.10;86.10;;;;;;5110643;28;20200;-46
2022/07/31 12:03:24;;;;;;;0.80;0.80;;;23.10;86.20;;;;;;5107808;28;20200;-46
2022/07/31 12:05:52;;;;;;;0.93;0.93;;;23.10;86.50;;;;;;5109854;28;20204;-46
2022/07/31 12:08:21;;;;;;;0.70;0.70;;;23.00;86.70;;;;;;5108118;28;20213;-45
2022/07/31 12:10:48;;;;;;;0.85;0.85;;;23.00;86.90;;;;;;5107468;28;20257;-41
2022/07/31 12:13:18;;;;;;;0.80;0.80;;;23.00;87.50;;;;;;5107560;28;20535;-47
2022/07/31 12:16:04;;;;;;;0.82;0.75;;;23.00;87.80;;;;;;5110046;28;20274;-43
2022/07/31 12:18:33;;;;;;;0.60;0.60;;;23.00;87.70;;;;;;5109519;28;20227;-46
2022/07/31 12:21:03;;;;;;;0.80;0.80;;;23.00;87.70;;;;;;5110782;28;20207;-38
2022/07/31 12:23:40;;;;;;;0.90;0.90;;;22.90;87.50;;;;;;5106503;28;20271;-38
2022/07/31 12:26:08;;;;;;;13.68;1.60;;;23.00;87.80;;;;;;5108673;28;20770;-40
2022/07/31 12:28:36;;;;;;;26.38;2.15;;;22.90;88.10;;;;;;5107746;28;20206;-41
2022/07/31 12:31:03;;;;;;;3.45;1.27;;;22.90;88.30;;;;;;5099745;28;20231;-45
2022/07/31 12:33:40;;;;;;;1.08;1.00;;;22.90;87.90;;;;;;5104102;28;20291;-45
2022/07/31 12:36:12;;;;;;;2.25;0.80;;;22.90;88.50;;;;;;5102246;28;20195;-43
2022/07/31 12:38:39;;;;;;;1.15;0.70;;;22.90;88.00;;;;;;5109506;28;20192;-42
2022/07/31 12:41:06;;;;;;;0.60;0.60;;;23.00;88.20;;;;;;5109809;28;20268;-43
2022/07/31 12:43:33;;;;;;;0.60;0.60;;;23.00;88.30;;;;;;5104765;28;20283;-38
2022/07/31 12:46:04;;;;;;;0.88;0.73;;;23.00;88.10;;;;;;5101270;28;20322;-42
2022/07/31 12:48:31;;;;;;;0.68;0.60;;;22.90;88.00;;;;;;5107160;28;20659;-47
2022/07/31 12:50:58;;;;;;;1.23;0.70;;;23.00;87.90;;;;;;5108950;28;20199;-44
2022/07/31 12:53:27;;;;;;;0.50;0.50;;;23.00;87.90;;;;;;5109225;28;20194;-41
2022/07/31 12:55:54;;;;;;;0.93;0.68;;;23.00;87.90;;;;;;5107926;28;20188;-44
2022/07/31 12:58:21;;;;;;;0.52;0.50;;;23.00;87.70;;;;;;5103466;28;20751;-45
2022/07/31 13:00:48;;;;;;;0.60;0.60;;;23.00;87.40;;;;;;5107763;28;20230;-36
2022/07/31 13:03:17;;;;;;;1.83;0.60;;;23.00;87.00;;;;;;5106767;28;20210;-43
2022/07/31 13:05:44;;;;;;;0.95;0.90;;;23.00;87.10;;;;;;5108025;28;20215;-37
2022/07/31 13:08:11;;;;;;;0.65;0.65;;;23.00;87.00;;;;;;5108434;28;20278;-37
2022/07/31 13:10:39;;;;;;;1.48;0.60;;;23.00;86.90;;;;;;5108452;28;20188;-41
2022/07/31 13:13:06;;;;;;;0.50;0.50;;;22.90;86.70;;;;;;5107466;28;20306;-41